EKBI/BLL METAR and TAF weather

Enter ICAO airport designator
Station Type Date Time Source
EKBI METAR 2021/05/14 04:50 UTC NOAA

EKBI 140450Z AUTO 25002KT 5000 OVC004/// 09/08 Q1004


Station Type Date Time Source
EKBI Decoded METAR 2021/05/14 04:50 UTC NOAA

Billund Lufthavn, Denmark (EKBI) 55-44N 009-10E 79M
May 14, 2021 - 12:50 AM EDT / 2021.05.14 0450 UTC
Wind: from the WSW (250 degrees) at 2 MPH (2 KT):0
Visibility: 3 mile(s):0
Sky conditions: overcast
Temperature: 48 F (9 C)
Dew Point: 46 F (8 C)
Relative Humidity: 93%
Pressure (altimeter): 29.65 in. Hg (1004 hPa)
ob: EKBI 140450Z AUTO 25002KT 5000 OVC004/// 09/08 Q1004
cycle: 5

Station Type Date Time Source
EKBI TAF 2021/05/14 03:36 UTC NOAA

TAF
AMD EKBI 140329Z 1403/1424 29008KT 9999 BKN020
TEMPO 1403/1406 4000 SHRA BR BKN004 SCT060CB
TEMPO 1406/1418 4000 SHRA BR BKN008 SCT060CB
BECMG 1418/1420 BKN006
TEMPO 1420/1424 BKN004

Example: see airport list